Somis, California
Current Conditions -  °F | °C
As of 9:55 PM on Saturday 22 Nov 2014 (Local Time) from KCMA Reporting Station
Clear Clear  
Wind Chill: 58°   Ceiling: Unl
Heat Index: 58°   Visibility: 10mi
Dew Point: 49°   Wind: 0mph
Humidity: 72%   Direction: NA
Pressure: 30.02"   Gusts: NA
Location:  34.26°N, 119°W
Report Text: KCMA 230555Z 00000KT 10SM CLR 14/09 A3002 RMK AO2 SLP175 T01440094 10200 20139 51014
Loading
Personal Weather Stations






























Interactive Weather Map New forecast layout! Learn more

10-Day Weather Forecast

Advertisements
Track Severe Weather on mobile